Time;durP1;ratioP1;P1;durP2;ratioP2;P2;SDS_P1;SDS_P2;PMS_P1;PMS_P2;Temp;Humidity;BMP_temperature;BMP_pressure;BME280_temperature;BME280_humidity;BME280_pressure;Samples;Min_cycle;Max_cycle;Signal;HPM_P1;HPM_P2
2023/04/16 00:00:24;;;;;;;;;11.75;10.75;;;;;10.94;59.45;101667.34;5073037;28;45643;-77
2023/04/16 00:02:49;;;;;;;;;12.75;11.25;;;;;10.93;59.54;101656.94;5073441;28;45617;-75
2023/04/16 00:05:15;;;;;;;;;10.50;10.00;;;;;10.88;59.36;101662.44;5072819;28;46441;-77
2023/04/16 00:07:40;;;;;;;;;10.75;10.00;;;;;10.89;59.32;101671.16;5073226;28;46087;-78
2023/04/16 00:10:06;;;;;;;;;8.25;7.75;;;;;10.87;59.26;101675.63;5072758;28;45867;-75
2023/04/16 00:12:32;;;;;;;;;8.00;7.50;;;;;10.85;58.84;101675.72;5073336;28;45807;-78
2023/04/16 00:14:58;;;;;;;;;7.50;7.00;;;;;10.78;58.83;101673.53;5072910;28;46361;-76
2023/04/16 00:17:23;;;;;;;;;10.00;8.00;;;;;10.66;59.15;101667.16;5071632;28;47101;-79
2023/04/16 00:19:49;;;;;;;;;10.50;8.00;;;;;10.67;58.92;101673.25;5072813;28;45651;-77
2023/04/16 00:26:03;;;;;;;;;7.00;6.00;;;;;10.51;59.46;101668.00;5072234;28;46095;-78
2023/04/16 00:28:28;;;;;;;;;10.50;8.50;;;;;10.47;59.00;101669.94;5072869;28;45624;-76
2023/04/16 00:30:54;;;;;;;;;10.25;10.25;;;;;10.42;59.37;101666.72;5054641;28;45854;-76
2023/04/16 00:33:20;;;;;;;;;9.00;6.50;;;;;10.46;59.38;101675.28;5073026;28;45787;-75
2023/04/16 00:35:46;;;;;;;;;6.75;6.75;;;;;10.46;59.12;101672.66;5072339;28;45979;-75
2023/04/16 00:38:12;;;;;;;;;8.00;7.50;;;;;10.44;58.79;101666.63;5073325;28;45628;-75
2023/04/16 00:40:38;;;;;;;;;9.50;7.00;;;;;10.40;59.18;101675.59;5075879;28;45923;-75
2023/04/16 00:43:03;;;;;;;;;9.00;8.00;;;;;10.38;59.09;101677.44;5076579;28;45577;-75
2023/04/16 00:45:28;;;;;;;;;7.75;6.00;;;;;10.34;59.14;101675.91;5075913;28;45723;-75
2023/04/16 00:47:55;;;;;;;;;7.25;6.75;;;;;10.33;59.00;101675.06;5076316;28;46311;-74
2023/04/16 00:50:21;;;;;;;;;8.00;7.00;;;;;10.33;59.43;101674.22;5075914;28;45671;-75
2023/04/16 00:56:09;;;;;;;;;10.00;9.75;;;;;10.32;59.26;101672.53;5075826;28;45592;-74
2023/04/16 00:58:34;;;;;;;;;10.00;9.00;;;;;10.27;59.55;101658.81;5076028;28;46054;-74
2023/04/16 01:01:00;;;;;;;;;11.00;9.75;;;;;10.28;59.33;101668.38;5075682;28;45705;-74
2023/04/16 01:03:42;;;;;;;;;3.00;2.75;;;;;10.26;59.34;101665.84;5076200;28;45684;-75
2023/04/16 01:06:08;;;;;;;;;10.25;9.75;;;;;10.18;59.71;101656.69;5057044;28;46736;-75
2023/04/16 01:08:33;;;;;;;;;8.00;8.00;;;;;10.18;59.63;101664.56;5075994;28;46229;-74
2023/04/16 01:10:59;;;;;;;;;8.25;7.25;;;;;10.13;60.12;101658.69;5075619;28;45564;-74
2023/04/16 01:13:24;;;;;;;;;11.50;8.50;;;;;10.11;60.07;101659.59;5076161;28;45580;-76
2023/04/16 01:15:50;;;;;;;;;8.25;7.00;;;;;10.11;60.46;101670.06;5075761;28;45702;-75
2023/04/16 01:18:17;;;;;;;;;11.25;10.75;;;;;10.08;60.61;101665.00;5075924;28;46091;-74
2023/04/16 01:20:43;;;;;;;;;10.50;9.25;;;;;9.99;60.52;101662.00;5075484;28;45769;-75
2023/04/16 01:26:30;;;;;;;;;13.25;11.75;;;;;9.93;60.82;101657.09;5075097;28;45558;-78
2023/04/16 01:28:56;;;;;;;;;8.50;8.25;;;;;9.90;60.61;101663.34;5075511;28;46180;-78
2023/04/16 01:31:21;;;;;;;;;6.75;6.25;;;;;9.90;60.62;101655.47;5056840;28;45902;-73
2023/04/16 01:33:46;;;;;;;;;9.75;8.25;;;;;9.93;60.56;101657.94;5075785;28;45554;-79
2023/04/16 01:36:12;;;;;;;;;7.00;6.50;;;;;9.90;60.71;101662.47;5075154;28;45709;-75
2023/04/16 01:38:37;;;;;;;;;9.00;7.50;;;;;9.90;60.36;101662.47;5075223;28;46029;-75
2023/04/16 01:41:02;;;;;;;;;12.00;9.00;;;;;9.88;60.85;101659.94;5074825;28;45812;-76
2023/04/16 01:43:28;;;;;;;;;10.00;8.50;;;;;9.88;60.60;101659.94;5075535;28;45738;-75
2023/04/16 01:46:10;;;;;;;;;11.50;10.00;;;;;9.94;60.86;101669.25;5075064;28;45543;-76
2023/04/16 01:48:35;;;;;;;;;13.25;10.50;;;;;9.97;60.90;101675.19;5074988;28;46281;-75
2023/04/16 01:51:00;;;;;;;;;10.00;7.00;;;;;9.98;60.47;101673.41;5074794;28;45782;-76
2023/04/16 01:56:47;;;;;;;;;11.75;11.00;;;;;9.92;61.29;101677.19;5074927;28;46223;-74
2023/04/16 01:59:13;;;;;;;;;15.00;13.50;;;;;9.87;61.55;101684.44;5074832;28;45609;-76
2023/04/16 02:01:39;;;;;;;;;15.50;12.00;;;;;9.80;61.76;101683.03;5075031;28;45683;-75
2023/04/16 02:04:05;;;;;;;;;18.25;12.75;;;;;9.67;61.62;101685.44;5075045;28;45888;-76
2023/04/16 02:06:30;;;;;;;;;15.00;10.75;;;;;9.60;62.05;101686.69;5074811;28;46176;-75
2023/04/16 02:08:56;;;;;;;;;18.00;10.00;;;;;9.52;62.20;101696.66;5074659;28;45889;-74
2023/04/16 02:11:21;;;;;;;;;14.00;10.50;;;;;9.42;62.35;101689.34;5074928;28;45564;-75
2023/04/16 02:13:46;;;;;;;;;12.00;10.50;;;;;9.31;62.52;101684.63;5075260;28;45650;-75
2023/04/16 02:16:12;;;;;;;;;9.75;9.50;;;;;9.21;62.68;101691.22;5074461;28;46337;-76
2023/04/16 02:18:37;;;;;;;;;16.00;12.50;;;;;9.10;63.00;101691.75;5074940;28;45910;-75
2023/04/16 02:21:05;;;;;;;;;10.25;10.25;;;;;9.01;63.33;101688.72;5074665;28;45624;-76
2023/04/16 02:26:53;;;;;;;;;14.25;10.50;;;;;8.91;63.66;101688.28;5074299;28;45592;-75
2023/04/16 02:29:19;;;;;;;;;7.00;7.00;;;;;8.86;63.81;101690.25;5074316;28;45770;-77
2023/04/16 02:31:45;;;;;;;;;11.50;11.00;;;;;8.80;63.74;101691.41;5074792;28;45751;-76
2023/04/16 02:34:11;;;;;;;;;10.50;7.00;;;;;8.79;63.98;101694.09;5074744;28;45886;-76
2023/04/16 02:36:36;;;;;;;;;9.25;9.00;;;;;8.73;64.01;101689.16;5074524;28;45575;-75
2023/04/16 02:43:03;;;;;;;;;9.75;9.25;;;;;8.63;64.35;101698.34;5073069;28;46332;-77
2023/04/16 02:45:30;;;;;;;;;10.00;8.50;;;;;8.61;64.31;101677.50;5075090;28;45829;-75
2023/04/16 02:47:55;;;;;;;;;7.25;6.00;;;;;8.63;64.24;101683.50;5056182;28;47543;-78
2023/04/16 02:50:21;;;;;;;;;9.00;8.00;;;;;8.62;64.34;101678.34;5074167;28;45812;-77
2023/04/16 02:52:47;;;;;;;;;11.00;10.00;;;;;8.58;64.43;101685.50;5074299;28;45625;-79
2023/04/16 02:55:12;;;;;;;;;9.25;9.25;;;;;8.60;64.39;101691.47;5074548;28;45802;-78
2023/04/16 02:57:38;;;;;;;;;10.00;7.00;;;;;8.57;64.17;101680.31;5074381;28;46858;-80
2023/04/16 03:00:03;;;;;;;;;7.00;7.00;;;;;8.62;64.24;101688.78;5073970;28;46466;-79
2023/04/16 03:02:29;;;;;;;;;12.00;10.00;;;;;8.60;64.31;101683.63;5073362;28;45632;-79
2023/04/16 03:04:55;;;;;;;;;10.25;10.00;;;;;8.63;64.28;101682.66;5055737;28;45753;-77
2023/04/16 03:07:20;;;;;;;;;8.50;7.25;;;;;8.63;64.16;101693.97;5073904;28;45671;-76
2023/04/16 03:09:46;;;;;;;;;10.25;9.50;;;;;8.65;64.06;101686.03;5073714;28;45879;-78
2023/04/16 03:12:11;;;;;;;;;8.50;6.75;;;;;8.62;63.82;101681.81;5073992;28;45986;-78
2023/04/16 03:14:36;;;;;;;;;9.00;7.50;;;;;8.65;64.24;101678.19;5073978;28;45763;-76
2023/04/16 03:17:02;;;;;;;;;11.50;9.50;;;;;8.64;64.07;101690.41;5073771;28;46934;-79
2023/04/16 03:19:27;;;;;;;;;9.00;6.75;;;;;8.64;63.98;101685.19;5073376;28;45707;-80
2023/04/16 03:21:52;;;;;;;;;9.00;7.00;;;;;8.64;64.14;101686.94;5073774;28;45637;-78
2023/04/16 03:27:39;;;;;;;;;8.75;7.25;;;;;8.62;63.92;101689.66;5073353;28;46072;-78
2023/04/16 03:30:11;;;;;;;;;9.00;7.00;;;;;8.58;64.02;101690.72;5073439;28;46188;-75
2023/04/16 03:32:37;;;;;;;;;9.00;7.00;;;;;8.59;63.94;101695.00;5073703;28;45561;-76
2023/04/16 03:35:03;;;;;;;;;13.00;6.00;;;;;8.64;63.85;101698.25;5073630;28;45688;-76
2023/04/16 03:37:28;;;;;;;;;9.00;6.50;;;;;8.64;63.79;101700.00;5073403;28;46584;-78
2023/04/16 03:43:16;;;;;;;;;11.00;9.00;;;;;8.62;63.80;101684.41;5071848;27;45984;-78
2023/04/16 03:45:45;;;;;;;;;10.00;9.25;;;;;8.59;63.68;101689.78;5073487;28;45855;-76
2023/04/16 03:48:11;;;;;;;;;6.50;5.75;;;;;8.56;64.15;101687.31;5073160;28;46629;-77
2023/04/16 03:50:36;;;;;;;;;7.50;6.50;;;;;8.53;63.89;101684.00;5072934;28;46196;-74
2023/04/16 03:53:01;;;;;;;;;7.50;7.00;;;;;8.52;63.81;101687.53;5073179;28;45851;-75
2023/04/16 03:55:27;;;;;;;;;8.75;7.50;;;;;8.48;63.88;101684.19;5073208;28;45835;-76
2023/04/16 03:57:52;;;;;;;;;13.75;10.75;;;;;8.43;63.87;101689.63;5073367;28;47062;-76
2023/04/16 04:00:18;;;;;;;;;12.25;8.50;;;;;8.45;64.03;101689.56;5072834;28;46028;-76
2023/04/16 04:02:43;;;;;;;;;9.25;7.50;;;;;8.47;64.11;101702.56;5073280;28;45443;-76
2023/04/16 04:05:09;;;;;;;;;7.50;6.25;;;;;8.48;64.09;101694.63;5073347;28;45736;-78
2023/04/16 04:07:34;;;;;;;;;9.00;8.00;;;;;8.49;64.02;101696.31;5073011;28;46488;-76
2023/04/16 04:13:22;;;;;;;;;10.00;9.75;;;;;8.49;64.05;101711.16;5072736;28;45826;-76
2023/04/16 04:15:47;;;;;;;;;10.00;8.00;;;;;8.48;64.04;101701.63;5073281;28;45663;-77
2023/04/16 04:18:12;;;;;;;;;12.25;10.25;;;;;8.52;64.30;101701.44;5071506;28;47053;-76
2023/04/16 04:20:40;;;;;;;;;10.50;9.75;;;;;8.50;64.23;101698.03;5072711;28;45620;-76
2023/04/16 04:23:05;;;;;;;;;10.00;7.00;;;;;8.54;64.10;101706.56;5072921;28;45742;-76
2023/04/16 04:25:30;;;;;;;;;13.25;11.50;;;;;8.54;64.20;101710.03;5072689;28;45652;-78
2023/04/16 04:27:56;;;;;;;;;9.00;7.25;;;;;8.58;64.49;101715.97;5072964;28;45669;-78
2023/04/16 04:30:21;;;;;;;;;9.50;9.00;;;;;8.57;64.42;101714.28;5072279;28;45668;-76
2023/04/16 04:32:46;;;;;;;;;14.00;13.00;;;;;8.62;64.57;101712.31;5072877;28;45637;-76
2023/04/16 04:35:12;;;;;;;;;5.00;5.00;;;;;8.64;64.45;101705.22;5072802;28;45640;-77
2023/04/16 04:37:37;;;;;;;;;13.25;10.00;;;;;8.70;64.47;101708.41;5072647;28;45831;-75
2023/04/16 04:43:24;;;;;;;;;14.50;13.50;;;;;8.73;65.06;101716.13;5071985;27;45790;-73
2023/04/16 04:45:49;;;;;;;;;15.50;14.50;;;;;8.72;65.12;101713.56;5072545;28;45510;-75
2023/04/16 04:48:15;;;;;;;;;13.50;10.50;;;;;8.67;65.35;101705.97;5072592;28;46243;-74
2023/04/16 04:50:41;;;;;;;;;16.00;14.50;;;;;8.69;65.53;101714.56;5072290;28;45964;-74
2023/04/16 04:53:10;;;;;;;;;17.00;15.75;;;;;8.69;65.72;101718.97;5072643;28;45956;-76
2023/04/16 04:58:57;;;;;;;;;22.50;19.50;;;;;8.69;66.10;101724.19;5071726;28;46083;-74
2023/04/16 05:01:22;;;;;;;;;22.50;18.00;;;;;8.69;66.23;101732.03;5072333;28;46422;-74
2023/04/16 05:03:48;;;;;;;;;25.00;21.00;;;;;8.69;66.38;101730.22;5072397;28;45720;-75
2023/04/16 05:06:13;;;;;;;;;30.00;24.00;;;;;8.67;66.63;101724.25;5072355;28;45609;-74
2023/04/16 05:08:39;;;;;;;;;29.00;23.00;;;;;8.66;66.70;101727.75;5072272;28;45714;-78
2023/04/16 05:11:04;;;;;;;;;26.50;22.75;;;;;8.67;66.79;101732.06;5072190;28;45723;-76
2023/04/16 05:13:30;;;;;;;;;22.25;16.25;;;;;8.64;66.81;101728.75;5072431;28;45707;-76
2023/04/16 05:15:55;;;;;;;;;27.00;24.75;;;;;8.61;67.09;101736.72;5072489;28;45631;-76
2023/04/16 05:18:20;;;;;;;;;35.00;22.75;;;;;8.56;67.22;101739.53;5072235;28;45659;-75
2023/04/16 05:20:46;;;;;;;;;26.25;25.00;;;;;8.55;67.45;101739.59;5071934;28;45780;-77
2023/04/16 05:23:11;;;;;;;;;30.25;23.00;;;;;8.50;67.53;101737.19;5072135;28;45540;-80
2023/04/16 05:28:58;;;;;;;;;29.75;25.75;;;;;8.39;67.98;101753.34;5074995;28;45554;-77
2023/04/16 05:31:24;;;;;;;;;32.50;25.50;;;;;8.36;68.05;101752.63;5075560;28;45681;-75
2023/04/16 05:33:49;;;;;;;;;30.50;24.75;;;;;8.30;68.07;101769.41;5075790;28;45721;-77
2023/04/16 05:36:15;;;;;;;;;29.00;25.50;;;;;8.26;68.36;101759.97;5076267;28;45625;-80
2023/04/16 05:38:40;;;;;;;;;27.50;22.00;;;;;8.19;68.63;101762.91;5075178;28;45658;-80
2023/04/16 05:44:27;;;;;;;;;29.75;28.00;;;;;8.17;68.74;101764.72;5073260;27;45783;-79
2023/04/16 05:46:53;;;;;;;;;34.25;29.25;;;;;8.19;68.58;101771.59;5075347;28;45511;-78
2023/04/16 05:49:19;;;;;;;;;29.25;25.75;;;;;8.16;68.76;101765.66;5075236;28;45538;-78
2023/04/16 05:51:44;;;;;;;;;36.50;27.75;;;;;8.13;68.91;101763.19;5075044;28;46159;-79
2023/04/16 05:54:10;;;;;;;;;29.00;22.25;;;;;8.17;69.04;101773.41;5073539;28;45833;-76
2023/04/16 05:56:35;;;;;;;;;32.25;28.75;;;;;8.16;68.95;101776.94;5077728;28;45623;-75
2023/04/16 05:59:00;;;;;;;;;31.00;27.75;;;;;8.13;68.74;101766.63;5074897;28;45820;-77
2023/04/16 06:01:26;;;;;;;;;26.00;24.25;;;;;8.16;69.00;101776.09;5075112;28;45911;-77
2023/04/16 06:03:51;;;;;;;;;27.00;23.50;;;;;8.17;69.12;101773.41;5075060;28;45660;-77
2023/04/16 06:06:16;;;;;;;;;29.75;24.75;;;;;8.21;69.17;101777.59;5075254;28;45969;-77
2023/04/16 06:08:42;;;;;;;;;29.25;25.50;;;;;8.26;69.00;101782.63;5074629;28;45603;-78
2023/04/16 06:14:29;;;;;;;;;29.50;25.50;;;;;8.30;69.13;101779.84;5074550;28;45924;-74
2023/04/16 06:16:55;;;;;;;;;31.50;27.75;;;;;8.33;69.20;101779.72;5074792;28;45659;-75
2023/04/16 06:19:20;;;;;;;;;27.25;26.25;;;;;8.40;68.90;101782.91;5074650;28;46254;-73
2023/04/16 06:21:46;;;;;;;;;24.00;22.75;;;;;8.41;68.55;101785.47;5075050;28;46326;-75
2023/04/16 06:24:12;;;;;;;;;28.25;24.00;;;;;8.38;68.76;101785.59;5074416;28;45744;-76
2023/04/16 06:29:59;;;;;;;;;29.25;22.00;;;;;8.44;69.06;101789.69;5074125;28;45810;-75
2023/04/16 06:32:24;;;;;;;;;29.75;24.75;;;;;8.43;68.88;101788.00;5074708;28;45907;-74
2023/04/16 06:34:50;;;;;;;;;31.00;26.25;;;;;8.45;68.98;101783.56;5072546;28;45665;-74
2023/04/16 06:37:15;;;;;;;;;28.25;26.00;;;;;8.49;68.89;101786.88;5072012;28;45680;-74
2023/04/16 06:39:41;;;;;;;;;29.25;25.50;;;;;8.49;68.81;101785.13;5074231;28;45722;-76
2023/04/16 06:42:06;;;;;;;;;26.75;23.75;;;;;8.49;68.71;101782.50;5074261;28;46187;-74
2023/04/16 06:44:31;;;;;;;;;24.75;23.50;;;;;8.52;68.92;101781.53;5073959;28;45743;-75
2023/04/16 06:46:57;;;;;;;;;24.00;23.50;;;;;8.60;68.77;101792.50;5074620;28;45587;-75
2023/04/16 06:49:22;;;;;;;;;26.25;25.50;;;;;8.62;68.60;101788.06;5072572;28;47375;-73
2023/04/16 06:51:47;;;;;;;;;33.50;26.50;;;;;8.66;68.64;101787.84;5074162;28;46948;-76
2023/04/16 06:54:13;;;;;;;;;24.00;21.75;;;;;8.71;68.14;101787.63;5073720;28;45736;-76
2023/04/16 07:00:00;;;;;;;;;17.50;14.25;;;;;8.78;68.28;101794.28;5073624;28;45892;-77
2023/04/16 07:02:25;;;;;;;;;28.75;26.00;;;;;8.82;68.37;101791.47;5074167;28;45691;-75
2023/04/16 07:04:51;;;;;;;;;33.25;27.25;;;;;8.88;68.55;101787.75;5074023;28;46076;-74
2023/04/16 07:07:17;;;;;;;;;30.25;25.50;;;;;8.94;68.27;101789.22;5074355;28;45837;-75
2023/04/16 07:09:42;;;;;;;;;30.75;27.50;;;;;9.00;68.40;101792.41;5073417;28;46316;-76
2023/04/16 07:15:29;;;;;;;;;28.50;24.50;;;;;9.08;68.01;101794.66;5073649;28;45951;-74
2023/04/16 07:17:54;;;;;;;;;28.75;26.50;;;;;9.11;67.88;101805.00;5074220;28;45729;-74
2023/04/16 07:20:20;;;;;;;;;32.00;28.00;;;;;9.11;68.06;101798.00;5072234;28;47509;-74
2023/04/16 07:22:45;;;;;;;;;32.50;28.25;;;;;9.14;68.16;101805.69;5073476;28;46710;-73
2023/04/16 07:25:11;;;;;;;;;32.25;28.00;;;;;9.14;67.75;101789.16;5055410;28;45748;-73
2023/04/16 07:27:36;;;;;;;;;32.25;27.25;;;;;9.14;67.88;101800.47;5074151;28;45581;-75
2023/04/16 07:30:01;;;;;;;;;38.50;33.50;;;;;9.16;67.78;101797.78;5071872;28;45712;-74
2023/04/16 07:32:27;;;;;;;;;27.75;26.50;;;;;9.18;67.89;101804.63;5073396;28;47241;-74
2023/04/16 07:34:52;;;;;;;;;30.50;25.25;;;;;9.23;67.61;101804.44;5073539;28;46132;-75
2023/04/16 07:37:17;;;;;;;;;35.00;29.50;;;;;9.27;67.62;101803.38;5073418;28;45751;-76
2023/04/16 07:39:43;;;;;;;;;33.00;29.50;;;;;9.33;67.69;101807.47;5072852;28;46472;-75
2023/04/16 07:45:30;;;;;;;;;32.75;28.50;;;;;9.34;67.24;101796.09;5071382;28;46171;-73
2023/04/16 07:47:55;;;;;;;;;29.25;25.75;;;;;9.36;67.36;101796.84;5072574;28;45856;-74
2023/04/16 07:50:20;;;;;;;;;32.25;25.50;;;;;9.42;67.36;101796.56;5073169;28;46319;-74
2023/04/16 07:52:46;;;;;;;;;37.25;29.50;;;;;9.47;66.98;101807.66;5073575;28;46484;-75
2023/04/16 07:55:11;;;;;;;;;29.00;25.25;;;;;9.50;66.80;101804.91;5073217;28;45679;-76
2023/04/16 08:00:58;;;;;;;;;32.25;27.75;;;;;9.56;66.80;101797.59;5073029;28;45550;-75
2023/04/16 08:03:25;;;;;;;;;29.00;26.00;;;;;9.61;66.67;101813.94;5073358;28;45931;-75
2023/04/16 08:05:51;;;;;;;;;26.75;24.00;;;;;9.64;66.59;101805.09;5072493;28;45699;-75
2023/04/16 08:08:16;;;;;;;;;29.75;24.25;;;;;9.66;66.50;101818.97;5072868;28;45775;-75
2023/04/16 08:10:41;;;;;;;;;32.25;27.25;;;;;9.70;66.68;101812.66;5072313;28;45613;-75
2023/04/16 08:13:07;;;;;;;;;28.25;25.25;;;;;9.73;66.78;101832.56;5072936;28;45817;-79
2023/04/16 08:15:32;;;;;;;;;28.75;25.50;;;;;9.74;66.54;101822.03;5072317;28;46008;-75
2023/04/16 08:17:58;;;;;;;;;30.25;26.75;;;;;9.75;66.61;101826.38;5071736;28;45724;-75
2023/04/16 08:20:24;;;;;;;;;31.00;29.25;;;;;9.74;66.73;101819.44;5071922;28;46323;-75
2023/04/16 08:22:49;;;;;;;;;33.00;28.25;;;;;9.74;66.42;101821.19;5072795;28;45724;-75
2023/04/16 08:25:15;;;;;;;;;34.50;27.50;;;;;9.77;66.48;101813.22;5072360;28;45776;-75
2023/04/16 08:31:02;;;;;;;;;32.75;28.75;;;;;9.84;66.30;101822.44;5072428;28;45864;-74
2023/04/16 08:33:27;;;;;;;;;35.00;29.50;;;;;9.84;66.58;101820.69;5072165;28;47306;-75
2023/04/16 08:35:52;;;;;;;;;31.00;25.75;;;;;9.88;66.58;101824.84;5072286;28;46221;-75
2023/04/16 08:38:18;;;;;;;;;28.00;23.50;;;;;9.88;66.27;101829.25;5070785;28;45945;-75
2023/04/16 08:40:45;;;;;;;;;28.75;22.00;;;;;9.89;66.30;101833.53;5070968;28;47399;-76
2023/04/16 08:46:36;;;;;;;;;32.75;26.50;;;;;10.03;66.29;101831.13;5070516;27;45890;-74
2023/04/16 08:49:05;;;;;;;;;42.75;34.50;;;;;10.05;65.77;101821.41;5071846;28;45910;-75
2023/04/16 08:51:34;;;;;;;;;25.25;21.75;;;;;10.16;65.50;101824.34;5071923;28;47360;-77
2023/04/16 08:54:03;;;;;;;;;24.25;22.25;;;;;10.26;65.01;101829.97;5071830;28;47092;-76
2023/04/16 08:56:30;;;;;;;;;27.75;22.75;;;;;10.33;64.25;101836.63;5071684;28;45948;-75
2023/04/16 08:58:57;;;;;;;;;20.25;19.00;;;;;10.40;63.94;101831.00;5072720;28;45799;-74
2023/04/16 09:01:25;;;;;;;;;27.50;23.25;;;;;10.46;63.62;101824.59;5075698;28;47280;-76
2023/04/16 09:03:52;;;;;;;;;27.25;22.00;;;;;10.53;63.30;101841.69;5075441;28;47146;-74
2023/04/16 09:06:18;;;;;;;;;21.75;18.50;;;;;10.61;63.41;101841.31;5075906;28;45948;-74
2023/04/16 09:08:45;;;;;;;;;24.00;21.75;;;;;10.66;62.67;101834.91;5075480;28;45624;-75
2023/04/16 09:11:12;;;;;;;;;21.00;17.00;;;;;10.68;62.77;101822.56;5075852;28;46415;-74
2023/04/16 09:17:01;;;;;;;;;20.00;16.75;;;;;10.80;61.84;101827.16;5075343;28;45656;-74
2023/04/16 09:19:26;;;;;;;;;22.00;19.25;;;;;10.84;61.63;101844.44;5075227;28;45647;-74
2023/04/16 09:21:52;;;;;;;;;25.75;21.00;;;;;10.88;61.50;101838.09;5075625;28;46473;-75
2023/04/16 09:24:18;;;;;;;;;16.75;16.00;;;;;10.96;61.39;101832.44;5075386;28;45860;-75
2023/04/16 09:26:44;;;;;;;;;22.25;16.00;;;;;11.02;60.95;101839.97;5075023;28;45623;-74
2023/04/16 09:29:09;;;;;;;;;22.00;16.50;;;;;11.10;60.55;101855.31;5056968;28;45896;-76
2023/04/16 09:31:35;;;;;;;;;23.50;21.00;;;;;11.13;60.31;101828.91;5075270;28;45821;-76
2023/04/16 09:34:01;;;;;;;;;20.50;19.00;;;;;11.19;60.61;101836.47;5075197;28;45966;-76
2023/04/16 09:36:27;;;;;;;;;22.00;20.25;;;;;11.25;60.31;101834.34;5075518;28;45662;-74
2023/04/16 09:38:53;;;;;;;;;18.00;15.00;;;;;11.31;60.29;101834.03;5075106;28;45811;-76
2023/04/16 09:41:19;;;;;;;;;19.25;16.75;;;;;11.37;59.63;101835.47;5075232;28;46378;-76
2023/04/16 09:47:08;;;;;;;;;21.00;19.00;;;;;11.50;59.46;101841.72;5073765;27;45726;-75
2023/04/16 09:49:39;;;;;;;;;18.75;18.00;;;;;11.54;58.89;101855.53;5056237;28;45860;-76
2023/04/16 09:52:13;;;;;;;;;20.25;17.00;;;;;11.60;58.36;101844.72;5074928;28;46604;-75
2023/04/16 09:54:46;;;;;;;;;17.75;14.25;;;;;11.63;58.30;101849.78;5074900;28;45584;-76
2023/04/16 09:57:12;;;;;;;;;17.75;17.50;;;;;11.70;58.51;101845.88;5074608;28;45681;-76
2023/04/16 09:59:37;;;;;;;;;20.25;19.00;;;;;11.75;58.12;101855.22;5055957;28;45887;-75
2023/04/16 10:02:03;;;;;;;;;19.00;17.50;;;;;11.78;57.97;101847.16;5073378;28;47390;-76
2023/04/16 10:04:28;;;;;;;;;19.50;17.50;;;;;11.86;58.17;101852.00;5073436;28;46006;-75
2023/04/16 10:07:04;;;;;;;;;20.00;18.00;;;;;11.94;57.70;101854.19;5074886;28;45632;-74
2023/04/16 10:09:39;;;;;;;;;24.00;18.50;;;;;12.00;57.42;101845.94;5074436;28;45633;-74
2023/04/16 10:18:30;;;;;;;;;14.50;13.75;;;;;12.19;55.81;101852.72;5074131;28;45881;-75
2023/04/16 10:20:56;;;;;;;;;19.25;16.00;;;;;12.24;55.66;101856.84;5074895;28;45625;-75
2023/04/16 10:23:22;;;;;;;;;20.00;16.75;;;;;12.27;55.45;101851.41;5073969;28;46701;-74
2023/04/16 10:25:53;;;;;;;;;19.50;12.75;;;;;12.34;55.60;101842.22;5074594;28;45765;-74
2023/04/16 10:28:19;;;;;;;;;14.75;13.25;;;;;12.43;55.69;101852.19;5072360;28;45911;-74
2023/04/16 10:30:51;;;;;;;;;12.75;12.00;;;;;12.50;55.11;101862.25;5074308;28;45818;-74
2023/04/16 10:33:39;;;;;;;;;19.75;15.00;;;;;12.58;54.95;101857.38;5074484;28;46275;-76
2023/04/16 10:36:16;;;;;;;;;15.00;14.00;;;;;12.65;54.87;101857.03;5073793;28;46365;-78
2023/04/16 10:38:57;;;;;;;;;18.50;15.25;;;;;12.70;54.65;101847.06;5055356;28;45669;-77
2023/04/16 10:41:24;;;;;;;;;15.00;14.25;;;;;12.74;54.99;101844.16;5076104;28;45854;-77
2023/04/16 10:43:50;;;;;;;;;17.00;15.75;;;;;12.80;54.45;101848.22;5072479;28;47504;-76
2023/04/16 10:46:22;;;;;;;;;16.50;14.50;;;;;12.87;54.74;101833.75;5073908;28;45680;-75
2023/04/16 10:48:51;;;;;;;;;16.75;16.50;;;;;12.95;54.07;101842.03;5073865;28;45514;-76
2023/04/16 10:51:32;;;;;;;;;13.75;10.75;;;;;13.01;53.97;101841.63;5074372;28;45672;-78
2023/04/16 10:54:25;;;;;;;;;14.75;14.00;;;;;13.11;54.00;101857.72;5073529;28;47069;-74
2023/04/16 10:56:51;;;;;;;;;20.00;15.75;;;;;13.16;53.25;101847.78;5031118;28;46141;-76
2023/04/16 10:59:19;;;;;;;;;15.00;11.50;;;;;13.20;53.56;101850.13;5030565;28;45693;-77
2023/04/16 11:01:46;;;;;;;;;16.25;15.00;;;;;13.28;53.26;101847.03;5031318;28;45714;-77
2023/04/16 11:04:21;;;;;;;;;21.00;16.50;;;;;13.34;53.31;101846.63;5030636;28;45638;-75
2023/04/16 11:07:14;;;;;;;;;18.50;15.50;;;;;13.38;53.23;101840.25;5030865;28;45830;-74
2023/04/16 11:09:50;;;;;;;;;13.00;12.50;;;;;13.43;53.53;101827.66;5030297;28;45770;-79
2023/04/16 11:12:39;;;;;;;;;16.75;16.50;;;;;13.50;53.03;101823.66;5030339;28;45933;-79
2023/04/16 11:15:06;;;;;;;;;13.75;11.75;;;;;13.53;52.86;101827.91;4989952;28;45727;-79
2023/04/16 11:17:52;;;;;;;;;15.25;13.75;;;;;13.58;52.09;101829.28;4990827;28;46018;-78
2023/04/16 11:20:20;;;;;;;;;14.00;11.25;;;;;13.61;51.78;101820.34;4990214;28;45665;-77
2023/04/16 11:22:46;;;;;;;;;15.50;11.00;;;;;13.66;51.83;101816.47;4990069;28;45868;-76
2023/04/16 11:25:11;;;;;;;;;12.00;10.00;;;;;13.72;51.30;101823.97;4990546;28;46080;-76
2023/04/16 11:27:37;;;;;;;;;5.00;4.00;;;;;13.76;51.29;101825.50;4990404;28;45922;-76
2023/04/16 11:30:05;;;;;;;;;12.00;11.00;;;;;13.81;50.87;101820.75;4990177;28;45657;-77
2023/04/16 11:32:32;;;;;;;;;11.75;9.25;;;;;13.86;50.70;101812.56;4990558;28;45783;-75
2023/04/16 11:35:02;;;;;;;;;14.00;10.00;;;;;13.90;49.94;101816.66;5029399;28;46410;-79
2023/04/16 11:37:33;;;;;;;;;10.25;10.25;;;;;13.93;50.19;101847.25;5030242;28;46165;-78
2023/04/16 11:39:58;;;;;;;;;9.00;7.25;;;;;13.91;49.66;101813.09;5030403;28;45816;-78
2023/04/16 11:42:25;;;;;;;;;9.50;9.50;;;;;13.98;49.40;101824.09;5030865;28;45759;-78
2023/04/16 11:44:55;;;;;;;;;11.00;8.00;;;;;14.03;48.53;101819.34;5030165;28;45622;-79
2023/04/16 11:47:22;;;;;;;;;11.25;10.00;;;;;14.04;48.84;101808.69;5029783;28;46559;-77
2023/04/16 11:49:48;;;;;;;;;9.00;8.00;;;;;14.06;48.14;101843.69;5029799;28;45823;-78
2023/04/16 11:52:24;;;;;;;;;8.00;6.75;;;;;14.06;47.36;101819.97;5053107;28;45703;-78
2023/04/16 11:54:50;;;;;;;;;10.00;6.25;;;;;14.10;47.38;101804.81;5073209;28;46654;-78
2023/04/16 11:57:25;;;;;;;;;4.75;4.75;;;;;14.13;47.25;101810.72;5073219;28;46242;-77
2023/04/16 11:59:50;;;;;;;;;5.00;4.75;;;;;14.15;46.40;101803.56;5072770;28;45817;-77
2023/04/16 12:02:16;;;;;;;;;6.50;5.25;;;;;14.19;47.17;101815.59;5073420;28;45625;-78
2023/04/16 12:04:41;;;;;;;;;8.75;6.00;;;;;14.23;47.37;101803.91;5072241;28;45835;-79
2023/04/16 12:07:11;;;;;;;;;9.50;9.00;;;;;14.27;46.76;101815.91;5072178;28;45751;-75
2023/04/16 12:09:43;;;;;;;;;10.00;9.25;;;;;14.28;47.74;101793.88;5072022;28;45600;-78
2023/04/16 12:12:37;;;;;;;;;5.00;5.00;;;;;14.35;47.22;101802.22;5073328;28;45680;-78
2023/04/16 12:15:17;;;;;;;;;5.00;5.00;;;;;14.38;45.92;101806.47;5072340;28;45691;-78
2023/04/16 12:17:42;;;;;;;;;9.00;5.00;;;;;14.41;46.07;101804.47;5072380;28;46016;-78
2023/04/16 12:20:14;;;;;;;;;4.75;4.75;;;;;14.41;45.17;101808.91;5072393;28;45741;-76
2023/04/16 12:22:46;;;;;;;;;7.25;7.00;;;;;14.46;46.03;101797.09;5072426;28;45582;-76
2023/04/16 12:25:13;;;;;;;;;5.50;5.00;;;;;14.52;46.20;101795.84;5072286;28;46454;-77
2023/04/16 12:27:46;;;;;;;;;6.00;5.00;;;;;14.58;45.72;101792.75;5073961;28;45689;-76
2023/04/16 12:30:13;;;;;;;;;6.00;5.50;;;;;14.62;46.36;101802.16;5074126;28;45821;-77
2023/04/16 12:32:40;;;;;;;;;8.75;6.50;;;;;14.62;45.96;101788.97;5054935;28;45847;-77
2023/04/16 12:35:06;;;;;;;;;6.00;5.00;;;;;14.62;46.01;101784.56;5076628;28;46256;-80
2023/04/16 12:37:32;;;;;;;;;8.25;6.00;;;;;14.69;46.26;101782.31;5076441;28;47053;-81
2023/04/16 12:39:57;;;;;;;;;6.25;5.00;;;;;14.72;46.11;101792.66;5076076;28;45583;-78
2023/04/16 12:42:23;;;;;;;;;5.25;4.25;;;;;14.76;45.84;101786.22;5076707;28;45708;-79